createdAt,value
2023-05-22T00:01:46.707Z,15.84
2023-05-22T00:04:21.100Z,15.38
2023-05-22T00:06:50.504Z,15.76
2023-05-22T00:09:18.291Z,15.34
2023-05-22T00:11:46.081Z,15.55
2023-05-22T00:14:14.392Z,15.61
2023-05-22T00:16:42.168Z,14.99
2023-05-22T00:19:13.275Z,15.48
2023-05-22T00:21:41.383Z,15.21
2023-05-22T00:24:10.682Z,15.16
2023-05-22T00:26:38.449Z,14.91
2023-05-22T00:29:06.654Z,15.07
2023-05-22T00:31:34.418Z,15.30
2023-05-22T00:34:02.329Z,15.07
2023-05-22T00:36:30.297Z,14.84
2023-05-22T00:38:58.051Z,14.88
2023-05-22T00:41:27.251Z,15.03
2023-05-22T00:43:55.184Z,14.97
2023-05-22T00:46:24.513Z,14.58
2023-05-22T00:48:53.104Z,14.80
2023-05-22T00:51:22.416Z,14.79
2023-05-22T00:53:50.759Z,14.76
2023-05-22T00:56:19.716Z,14.82
2023-05-22T00:58:49.237Z,14.77
2023-05-22T01:01:17.691Z,14.53
2023-05-22T01:03:45.879Z,14.18
2023-05-22T01:06:14.409Z,14.25
2023-05-22T01:08:42.937Z,14.56
2023-05-22T01:11:16.436Z,14.64
2023-05-22T01:13:54.884Z,14.38
2023-05-22T01:16:30.278Z,14.29
2023-05-22T01:19:04.140Z,14.51
2023-05-22T01:21:38.274Z,14.63
2023-05-22T01:24:45.660Z,14.47
2023-05-22T01:27:49.354Z,14.48
2023-05-22T01:30:30.480Z,14.32
2023-05-22T01:33:00.658Z,14.37
2023-05-22T01:35:29.631Z,14.03
2023-05-22T01:37:59.425Z,14.57
2023-05-22T01:40:28.350Z,14.42
2023-05-22T01:42:56.446Z,14.52
2023-05-22T01:45:24.167Z,14.37
2023-05-22T01:47:52.120Z,14.77
2023-05-22T01:50:21.588Z,14.54
2023-05-22T01:53:00.249Z,14.44
2023-05-22T01:55:35.114Z,14.38
2023-05-22T01:58:13.621Z,14.35
2023-05-22T02:00:44.363Z,14.58
2023-05-22T02:03:20.254Z,14.72
2023-05-22T02:05:55.559Z,14.41
2023-05-22T02:08:25.015Z,13.92
2023-05-22T02:10:56.030Z,13.87
2023-05-22T02:13:24.546Z,14.39
2023-05-22T02:15:53.138Z,14.19
2023-05-22T02:18:22.326Z,14.24
2023-05-22T02:20:51.543Z,14.07
2023-05-22T02:23:19.336Z,14.53
2023-05-22T02:25:47.047Z,14.00
2023-05-22T02:28:14.801Z,14.31
2023-05-22T02:30:42.529Z,14.07
2023-05-22T02:33:11.489Z,14.22
2023-05-22T02:35:39.257Z,14.13
2023-05-22T02:38:08.358Z,14.09
2023-05-22T02:40:36.099Z,13.84
2023-05-22T02:43:03.906Z,13.83
2023-05-22T02:45:33.502Z,14.18
2023-05-22T02:48:03.386Z,14.04
2023-05-22T02:50:31.310Z,14.11
2023-05-22T02:52:59.069Z,13.90
2023-05-22T02:55:28.234Z,13.89
2023-05-22T02:57:55.988Z,13.57
2023-05-22T03:00:23.766Z,13.95
2023-05-22T03:02:51.567Z,14.12
2023-05-22T03:05:19.632Z,14.09
2023-05-22T03:07:49.106Z,13.97
2023-05-22T03:10:17.050Z,13.80
2023-05-22T03:12:46.143Z,13.75
2023-05-22T03:15:13.920Z,13.76
2023-05-22T03:17:41.705Z,14.28
2023-05-22T03:20:10.449Z,14.02
2023-05-22T03:22:38.263Z,13.56
2023-05-22T03:25:09.368Z,14.00
2023-05-22T03:27:37.146Z,14.25
2023-05-22T03:30:08.077Z,14.26
2023-05-22T03:32:37.635Z,13.84
2023-05-22T03:35:06.547Z,14.04
2023-05-22T03:37:34.424Z,14.30
2023-05-22T03:40:02.270Z,14.22
2023-05-22T03:42:29.984Z,13.95
2023-05-22T03:44:57.724Z,13.99
2023-05-22T03:47:26.943Z,13.76
2023-05-22T03:49:54.703Z,13.98
2023-05-22T03:52:23.182Z,13.64
2023-05-22T03:54:51.091Z,13.68
2023-05-22T03:57:19.965Z,13.86
2023-05-22T03:59:47.773Z,13.84
2023-05-22T04:02:16.896Z,13.55
2023-05-22T04:04:47.057Z,13.46
2023-05-22T04:07:14.881Z,14.01
2023-05-22T04:09:42.692Z,13.80
2023-05-22T04:12:11.014Z,14.01
2023-05-22T04:14:38.769Z,14.02
2023-05-22T04:17:06.551Z,13.80
2023-05-22T04:19:34.347Z,13.24
2023-05-22T04:22:03.507Z,13.68
2023-05-22T04:24:31.285Z,13.95
2023-05-22T04:27:00.359Z,14.08
2023-05-22T04:29:28.632Z,14.07
2023-05-22T04:31:56.396Z,13.97
2023-05-22T04:34:24.506Z,13.23
2023-05-22T04:36:52.675Z,13.98
2023-05-22T04:39:22.322Z,14.27
2023-05-22T04:41:50.541Z,14.38
2023-05-22T04:44:18.296Z,14.35
2023-05-22T04:46:46.131Z,14.34
2023-05-22T04:49:14.211Z,14.51
2023-05-22T04:51:41.990Z,14.36
2023-05-22T04:54:09.743Z,14.37
2023-05-22T04:56:38.911Z,14.41
2023-05-22T04:59:09.355Z,14.56
2023-05-22T05:01:37.954Z,14.23
2023-05-22T05:04:06.113Z,14.41
2023-05-22T05:06:34.916Z,14.34
2023-05-22T05:09:02.811Z,14.63
2023-05-22T05:11:30.559Z,14.78
2023-05-22T05:13:59.694Z,14.53
2023-05-22T05:16:27.821Z,14.58
2023-05-22T05:18:56.642Z,14.80
2023-05-22T05:21:27.932Z,14.79
2023-05-22T05:23:55.829Z,14.73
2023-05-22T05:26:24.086Z,14.57
2023-05-22T05:28:51.988Z,14.41
2023-05-22T05:31:21.296Z,14.99
2023-05-22T05:33:49.124Z,15.04
2023-05-22T05:36:17.372Z,15.15
2023-05-22T05:38:45.102Z,14.90
2023-05-22T05:41:12.939Z,14.75
2023-05-22T05:43:40.777Z,15.05
2023-05-22T05:46:08.609Z,14.70
2023-05-22T05:48:37.747Z,14.33
2023-05-22T05:51:05.686Z,14.87
2023-05-22T05:53:33.621Z,15.02
2023-05-22T05:56:01.367Z,15.41
2023-05-22T05:58:29.147Z,15.03
2023-05-22T06:00:57.287Z,15.42
2023-05-22T06:03:26.018Z,15.50
2023-05-22T06:05:55.464Z,15.41
2023-05-22T06:08:23.192Z,15.35
2023-05-22T06:10:51.118Z,15.25
2023-05-22T06:13:18.890Z,15.21
2023-05-22T06:15:46.718Z,15.49
2023-05-22T06:18:14.504Z,15.27
2023-05-22T06:20:42.428Z,15.87
2023-05-22T06:23:11.660Z,15.30
2023-05-22T06:25:40.157Z,15.35
2023-05-22T06:28:07.920Z,15.81
2023-05-22T06:30:39.985Z,15.80
2023-05-22T06:33:09.097Z,15.94
2023-05-22T06:35:37.020Z,15.88
2023-05-22T06:38:04.874Z,16.43
2023-05-22T06:40:33.995Z,16.59
2023-05-22T06:43:02.245Z,16.28
2023-05-22T06:45:30.181Z,16.38
2023-05-22T06:47:58.097Z,16.44
2023-05-22T06:50:25.911Z,16.61
2023-05-22T06:52:53.652Z,16.67
2023-05-22T06:55:21.432Z,16.96
2023-05-22T06:57:50.986Z,17.15
2023-05-22T07:00:21.522Z,17.42
2023-05-22T07:02:49.692Z,17.50
2023-05-22T07:05:17.866Z,17.58
2023-05-22T07:07:45.674Z,17.10
2023-05-22T07:10:13.554Z,17.34
2023-05-22T07:12:41.326Z,17.29
2023-05-22T07:15:13.500Z,17.40
2023-05-22T07:17:41.930Z,17.30
2023-05-22T07:20:10.894Z,17.80
2023-05-22T07:22:38.793Z,17.97
2023-05-22T07:25:07.576Z,17.99
2023-05-22T07:27:35.484Z,17.99
2023-05-22T07:30:03.267Z,17.68
2023-05-22T07:32:32.421Z,17.52
2023-05-22T07:35:00.221Z,17.47
2023-05-22T07:37:28.013Z,17.39
2023-05-22T07:39:55.871Z,17.69
2023-05-22T07:42:23.735Z,17.96
2023-05-22T07:44:51.566Z,18.42
2023-05-22T07:47:19.442Z,18.58
2023-05-22T07:49:48.611Z,18.67
2023-05-22T07:52:16.509Z,18.25
2023-05-22T07:54:45.306Z,18.11
2023-05-22T07:57:14.072Z,18.20
2023-05-22T07:59:43.737Z,18.34
2023-05-22T08:02:11.496Z,18.12
2023-05-22T08:04:39.458Z,17.98
2023-05-22T08:07:08.756Z,18.51
2023-05-22T08:09:36.582Z,18.42
2023-05-22T08:12:04.574Z,18.02
2023-05-22T08:14:35.495Z,18.25
2023-05-22T08:17:03.515Z,18.45
2023-05-22T08:19:31.945Z,18.53
2023-05-22T08:22:00.032Z,18.28
2023-05-22T08:24:30.606Z,18.62
2023-05-22T08:27:00.605Z,18.58
2023-05-22T08:29:29.812Z,18.95
2023-05-22T08:31:58.247Z,19.62
2023-05-22T08:34:26.487Z,19.07
2023-05-22T08:36:54.291Z,19.68
2023-05-22T08:39:22.057Z,19.35
2023-05-22T08:41:51.597Z,19.11
2023-05-22T08:44:19.824Z,19.10
2023-05-22T08:46:48.591Z,19.24
2023-05-22T08:49:18.253Z,19.22
2023-05-22T08:51:49.484Z,19.46
2023-05-22T08:54:18.541Z,19.82
2023-05-22T08:56:56.081Z,19.40
2023-05-22T08:59:26.855Z,18.80
2023-05-22T09:01:56.631Z,18.92
2023-05-22T09:04:25.748Z,18.89
2023-05-22T09:06:55.192Z,19.06
2023-05-22T09:09:23.131Z,19.64
2023-05-22T09:11:51.012Z,20.44
2023-05-22T09:14:19.859Z,20.11
2023-05-22T09:16:50.538Z,19.75
2023-05-22T09:19:18.482Z,19.45
2023-05-22T09:21:46.264Z,19.40
2023-05-22T09:24:15.441Z,19.58
2023-05-22T09:26:43.234Z,19.71
2023-05-22T09:29:11.106Z,20.16
2023-05-22T09:31:43.834Z,19.94
2023-05-22T09:34:15.649Z,19.84
2023-05-22T09:36:43.757Z,19.78
2023-05-22T09:39:11.705Z,19.99
2023-05-22T09:41:40.923Z,20.39
2023-05-22T09:44:13.840Z,20.50
2023-05-22T09:46:42.667Z,20.47
2023-05-22T09:49:12.658Z,20.75
2023-05-22T09:51:47.615Z,21.14
2023-05-22T09:54:17.445Z,20.87
2023-05-22T09:56:47.946Z,21.20
2023-05-22T09:59:20.868Z,21.63
2023-05-22T10:01:50.916Z,21.12
2023-05-22T10:04:19.563Z,20.87
2023-05-22T10:06:52.394Z,20.82
2023-05-22T10:09:24.844Z,21.07
2023-05-22T10:11:56.142Z,20.54
2023-05-22T10:14:24.880Z,20.86
2023-05-22T10:16:53.299Z,20.88
2023-05-22T10:19:21.413Z,21.13
2023-05-22T10:21:51.167Z,20.51
2023-05-22T10:24:19.194Z,20.67
2023-05-22T10:26:46.981Z,20.83
2023-05-22T10:29:25.630Z,19.92
2023-05-22T10:32:02.103Z,20.64
2023-05-22T10:34:35.656Z,20.53
2023-05-22T10:37:21.772Z,20.71
2023-05-22T10:40:00.930Z,20.91
2023-05-22T10:42:31.081Z,21.01
2023-05-22T10:45:01.847Z,21.20
2023-05-22T10:47:29.764Z,21.79
2023-05-22T10:50:05.743Z,21.76
2023-05-22T10:52:35.032Z,21.31
2023-05-22T10:55:06.747Z,21.28
2023-05-22T10:57:35.292Z,21.55
2023-05-22T11:00:11.692Z,21.23
2023-05-22T11:02:42.075Z,20.99
2023-05-22T11:05:41.006Z,20.78
2023-05-22T11:08:36.729Z,21.36
2023-05-22T11:11:13.374Z,21.82
2023-05-22T11:13:42.516Z,21.77
2023-05-22T11:16:11.707Z,21.07
2023-05-22T11:18:39.834Z,20.79
2023-05-22T11:21:11.198Z,21.58
2023-05-22T11:23:40.570Z,21.67
2023-05-22T11:26:22.507Z,21.88
2023-05-22T11:28:53.192Z,21.35
2023-05-22T11:31:23.976Z,21.84
2023-05-22T11:33:51.843Z,22.41
2023-05-22T11:36:20.095Z,21.68
2023-05-22T11:38:49.231Z,21.94
2023-05-22T11:41:17.146Z,22.07
2023-05-22T11:43:45.257Z,22.06
2023-05-22T11:46:14.153Z,22.39
2023-05-22T11:48:43.036Z,22.77
2023-05-22T11:51:11.186Z,22.67
2023-05-22T11:53:38.912Z,22.36
2023-05-22T11:56:08.709Z,22.61
2023-05-22T11:58:36.452Z,23.30
2023-05-22T12:01:05.528Z,22.88
2023-05-22T12:03:33.904Z,22.10
2023-05-22T12:06:03.222Z,22.68
2023-05-22T12:08:31.273Z,22.83
2023-05-22T12:10:59.100Z,23.02
2023-05-22T12:13:30.080Z,23.63
2023-05-22T12:16:01.294Z,23.88
2023-05-22T12:18:29.440Z,22.36
2023-05-22T12:20:57.563Z,22.66
2023-05-22T12:23:26.617Z,22.81
2023-05-22T12:25:59.086Z,22.78
2023-05-22T12:28:28.758Z,23.17
2023-05-22T12:30:57.047Z,23.46
2023-05-22T12:33:28.889Z,23.80
2023-05-22T12:35:58.468Z,22.96
2023-05-22T12:38:27.515Z,22.54
2023-05-22T12:40:56.458Z,22.47
2023-05-22T12:43:26.376Z,23.01
2023-05-22T12:45:55.634Z,23.76
2023-05-22T12:48:23.991Z,24.11
2023-05-22T12:50:51.822Z,23.97
2023-05-22T12:53:19.698Z,22.98
2023-05-22T12:55:47.490Z,23.10
2023-05-22T12:58:15.336Z,23.16
2023-05-22T13:00:43.224Z,23.85
2023-05-22T13:03:12.612Z,24.58
2023-05-22T13:05:40.800Z,24.25
2023-05-22T13:08:08.775Z,22.86
2023-05-22T13:10:38.101Z,23.73
2023-05-22T13:13:05.820Z,24.33
2023-05-22T13:15:33.567Z,24.73
2023-05-22T13:18:01.407Z,24.16
2023-05-22T13:20:30.545Z,24.14
2023-05-22T13:22:58.344Z,24.56
2023-05-22T13:25:26.065Z,24.05
2023-05-22T13:27:53.754Z,24.07
2023-05-22T13:30:21.572Z,24.33
2023-05-22T13:32:49.471Z,23.73
2023-05-22T13:35:17.290Z,23.77
2023-05-22T13:37:46.459Z,24.38
2023-05-22T13:40:14.590Z,25.08
2023-05-22T13:42:42.453Z,25.15
2023-05-22T13:45:11.814Z,24.61
2023-05-22T13:47:39.722Z,24.15
2023-05-22T13:50:09.173Z,23.70
2023-05-22T13:52:37.023Z,23.25
2023-05-22T13:55:06.985Z,23.35
2023-05-22T13:57:36.970Z,24.06
2023-05-22T14:00:05.376Z,24.96
2023-05-22T14:02:33.235Z,25.18
2023-05-22T14:05:01.260Z,25.70
2023-05-22T14:07:29.017Z,24.91
2023-05-22T14:09:59.025Z,24.01
2023-05-22T14:12:29.808Z,24.28
2023-05-22T14:14:57.741Z,24.80
2023-05-22T14:17:25.586Z,24.73
2023-05-22T14:19:53.315Z,24.82
2023-05-22T14:22:21.086Z,25.27
2023-05-22T14:24:48.844Z,24.69
2023-05-22T14:27:16.720Z,24.33
2023-05-22T14:29:45.907Z,24.39
2023-05-22T14:32:13.627Z,24.57
2023-05-22T14:34:41.343Z,24.33
2023-05-22T14:37:09.050Z,24.50
2023-05-22T14:39:36.765Z,24.00
2023-05-22T14:42:04.877Z,24.96
2023-05-22T14:44:32.721Z,24.67
2023-05-22T14:47:01.974Z,23.91
2023-05-22T14:49:29.704Z,24.59
2023-05-22T14:51:57.558Z,24.23
2023-05-22T14:54:25.283Z,24.73
2023-05-22T14:56:53.184Z,24.79
2023-05-22T14:59:21.461Z,24.53
2023-05-22T15:01:50.463Z,24.06
2023-05-22T15:04:19.950Z,24.02
2023-05-22T15:06:47.661Z,24.75
2023-05-22T15:09:15.419Z,23.83
2023-05-22T15:11:45.748Z,24.18
2023-05-22T15:14:13.568Z,25.49
2023-05-22T15:16:41.768Z,24.33
2023-05-22T15:19:10.143Z,25.27
2023-05-22T15:21:42.073Z,24.67
2023-05-22T15:24:09.925Z,24.61
2023-05-22T15:26:37.773Z,24.75
2023-05-22T15:29:05.942Z,24.84
2023-05-22T15:31:33.769Z,24.66
2023-05-22T15:34:01.565Z,24.34
2023-05-22T15:36:30.503Z,24.36
2023-05-22T15:38:59.606Z,24.00
2023-05-22T15:41:27.465Z,24.46
2023-05-22T15:43:55.254Z,24.21
2023-05-22T15:46:23.050Z,24.28
2023-05-22T15:48:50.888Z,23.96
2023-05-22T15:51:18.626Z,23.63
2023-05-22T15:53:46.348Z,23.41
2023-05-22T15:56:15.540Z,24.56
2023-05-22T15:58:43.287Z,24.67
2023-05-22T16:01:12.184Z,24.29
2023-05-22T16:03:40.105Z,24.64
2023-05-22T16:06:08.301Z,24.21
2023-05-22T16:08:36.051Z,23.82
2023-05-22T16:11:03.875Z,24.35
2023-05-22T16:13:33.287Z,24.67
2023-05-22T16:16:01.723Z,24.62
2023-05-22T16:18:29.579Z,24.53
2023-05-22T16:20:57.299Z,24.65
2023-05-22T16:23:25.079Z,24.50
2023-05-22T16:25:52.831Z,24.50
2023-05-22T16:28:20.587Z,24.63
2023-05-22T16:30:49.749Z,24.60
2023-05-22T16:33:17.468Z,24.64
2023-05-22T16:35:46.947Z,24.62
2023-05-22T16:38:14.849Z,24.14
2023-05-22T16:40:42.658Z,24.57
2023-05-22T16:43:10.589Z,24.30
2023-05-22T16:45:38.562Z,23.21
2023-05-22T16:48:08.269Z,23.64
2023-05-22T16:50:36.085Z,23.55
2023-05-22T16:53:06.702Z,23.53
2023-05-22T16:55:34.475Z,23.93
2023-05-22T16:58:02.265Z,23.54
2023-05-22T17:00:30.176Z,23.39
2023-05-22T17:02:58.435Z,23.74
2023-05-22T17:05:27.645Z,23.10
2023-05-22T17:07:55.476Z,23.39
2023-05-22T17:10:23.468Z,23.31
2023-05-22T17:12:51.948Z,23.18
2023-05-22T17:15:19.716Z,23.55
2023-05-22T17:17:47.489Z,23.54
2023-05-22T17:20:15.275Z,23.59
2023-05-22T17:22:45.106Z,23.66
2023-05-22T17:25:12.877Z,23.72
2023-05-22T17:27:40.662Z,22.96
2023-05-22T17:30:09.414Z,22.42
2023-05-22T17:32:37.182Z,23.26
2023-05-22T17:35:06.607Z,23.02
2023-05-22T17:37:34.764Z,22.94
2023-05-22T17:40:04.066Z,23.01
2023-05-22T17:42:31.813Z,22.43
2023-05-22T17:44:59.557Z,22.57
2023-05-22T17:47:27.338Z,23.01
2023-05-22T17:49:55.095Z,22.83
2023-05-22T17:52:22.963Z,22.59
2023-05-22T17:54:50.868Z,22.93
2023-05-22T17:57:20.035Z,23.09
2023-05-22T17:59:47.823Z,22.38
2023-05-22T18:02:15.738Z,22.73
2023-05-22T18:04:43.619Z,22.54
2023-05-22T18:07:11.397Z,22.77
2023-05-22T18:09:39.217Z,22.43
2023-05-22T18:12:10.906Z,22.42
2023-05-22T18:14:42.020Z,22.92
2023-05-22T18:17:09.770Z,22.72
2023-05-22T18:19:37.525Z,22.63
2023-05-22T18:22:05.596Z,22.91
2023-05-22T18:24:36.424Z,22.59
2023-05-22T18:27:04.588Z,22.00
2023-05-22T18:29:32.533Z,22.40
2023-05-22T18:32:01.721Z,22.77
2023-05-22T18:34:29.884Z,22.61
2023-05-22T18:36:59.621Z,22.54
2023-05-22T18:39:27.367Z,22.14
2023-05-22T18:41:55.107Z,22.23
2023-05-22T18:44:23.258Z,22.17
2023-05-22T18:46:51.062Z,22.09
2023-05-22T18:49:20.617Z,21.68
2023-05-22T18:51:48.423Z,21.43
2023-05-22T18:54:16.185Z,21.80
2023-05-22T18:56:43.928Z,21.30
2023-05-22T18:59:11.681Z,21.26
2023-05-22T19:01:39.431Z,20.78
2023-05-22T19:04:08.175Z,21.20
2023-05-22T19:06:37.767Z,21.41
2023-05-22T19:09:05.666Z,20.91
2023-05-22T19:11:33.512Z,20.96
2023-05-22T19:14:01.378Z,21.22
2023-05-22T19:16:29.210Z,21.26
2023-05-22T19:18:57.050Z,21.49
2023-05-22T19:21:26.340Z,20.82
2023-05-22T19:23:55.464Z,20.84
2023-05-22T19:26:23.346Z,20.97
2023-05-22T19:28:51.428Z,20.97
2023-05-22T19:31:19.288Z,20.40
2023-05-22T19:33:47.041Z,20.76
2023-05-22T19:36:14.803Z,20.84
2023-05-22T19:38:42.501Z,21.12
2023-05-22T19:41:11.640Z,20.67
2023-05-22T19:43:39.383Z,20.43
2023-05-22T19:46:08.877Z,20.57
2023-05-22T19:48:36.872Z,20.58
2023-05-22T19:51:05.311Z,20.81
2023-05-22T19:53:34.107Z,20.50
2023-05-22T19:56:02.911Z,20.64
2023-05-22T19:58:32.223Z,20.25
2023-05-22T20:00:59.968Z,20.36
2023-05-22T20:03:27.812Z,20.23
2023-05-22T20:05:55.669Z,19.86
2023-05-22T20:08:25.435Z,20.14
2023-05-22T20:10:53.487Z,20.26
2023-05-22T20:13:21.301Z,20.03
2023-05-22T20:15:51.316Z,20.00
2023-05-22T20:18:20.740Z,19.93
2023-05-22T20:20:48.494Z,19.94
2023-05-22T20:23:16.397Z,19.95
2023-05-22T20:25:44.149Z,19.97
2023-05-22T20:28:11.850Z,19.68
2023-05-22T20:30:39.589Z,19.62
2023-05-22T20:33:08.956Z,19.58
2023-05-22T20:35:37.174Z,19.44
2023-05-22T20:38:08.585Z,19.46
2023-05-22T20:40:37.722Z,19.68
2023-05-22T20:43:05.452Z,19.58
2023-05-22T20:45:34.328Z,19.55
2023-05-22T20:48:02.253Z,19.40
2023-05-22T20:50:32.736Z,19.04
2023-05-22T20:53:00.712Z,19.26
2023-05-22T20:55:28.439Z,19.28
2023-05-22T20:57:56.761Z,19.47
2023-05-22T21:00:24.507Z,19.23
2023-05-22T21:02:52.470Z,18.99
2023-05-22T21:05:20.295Z,18.83
2023-05-22T21:07:49.692Z,19.27
2023-05-22T21:10:17.597Z,18.76
2023-05-22T21:12:46.154Z,18.88
2023-05-22T21:15:13.963Z,18.56
2023-05-22T21:17:41.749Z,18.98
2023-05-22T21:20:10.404Z,18.52
2023-05-22T21:22:38.182Z,18.75
2023-05-22T21:25:08.711Z,18.85
2023-05-22T21:27:36.498Z,18.99
2023-05-22T21:30:04.616Z,19.10
2023-05-22T21:32:32.381Z,19.08
2023-05-22T21:35:00.136Z,18.81
2023-05-22T21:37:27.939Z,18.60
2023-05-22T21:39:55.688Z,18.54
2023-05-22T21:42:26.204Z,18.44
2023-05-22T21:44:54.118Z,18.37
2023-05-22T21:47:21.851Z,18.45
2023-05-22T21:49:49.627Z,18.68
2023-05-22T21:52:17.407Z,18.54
2023-05-22T21:54:45.208Z,18.09
2023-05-22T21:57:12.963Z,18.32
2023-05-22T21:59:42.180Z,18.35
2023-05-22T22:02:09.973Z,18.23
2023-05-22T22:04:37.727Z,18.23
2023-05-22T22:07:05.687Z,18.08
2023-05-22T22:09:33.513Z,18.27
2023-05-22T22:12:01.270Z,18.11
2023-05-22T22:14:29.215Z,17.94
2023-05-22T22:16:58.358Z,17.94
2023-05-22T22:19:26.238Z,17.70
2023-05-22T22:21:54.350Z,17.49
2023-05-22T22:24:22.188Z,17.64
2023-05-22T22:26:50.078Z,18.16
2023-05-22T22:29:17.803Z,18.23
2023-05-22T22:31:45.708Z,17.83
2023-05-22T22:34:14.821Z,17.98
2023-05-22T22:36:42.576Z,17.83
2023-05-22T22:39:10.572Z,18.21
2023-05-22T22:41:38.304Z,18.15
2023-05-22T22:44:06.091Z,18.12
2023-05-22T22:46:33.971Z,18.09
2023-05-22T22:49:02.279Z,18.28
2023-05-22T22:51:31.880Z,17.94
2023-05-22T22:53:59.734Z,18.18
2023-05-22T22:56:29.334Z,18.42
2023-05-22T22:58:57.546Z,17.98
2023-05-22T23:01:25.489Z,17.70
2023-05-22T23:03:53.312Z,18.24
2023-05-22T23:06:21.076Z,17.92
2023-05-22T23:08:50.280Z,17.74
2023-05-22T23:11:18.137Z,17.82
2023-05-22T23:13:45.913Z,18.18
2023-05-22T23:16:13.729Z,17.99
2023-05-22T23:18:41.632Z,18.03
2023-05-22T23:21:09.391Z,18.20
2023-05-22T23:23:37.088Z,17.85
2023-05-22T23:26:06.487Z,17.86
2023-05-22T23:28:34.232Z,17.74
2023-05-22T23:31:02.236Z,17.62
2023-05-22T23:33:29.950Z,17.68
2023-05-22T23:35:57.716Z,17.93
2023-05-22T23:38:25.752Z,17.88
2023-05-22T23:40:53.514Z,18.17
2023-05-22T23:43:22.677Z,17.79
2023-05-22T23:45:50.562Z,17.58
2023-05-22T23:48:18.353Z,17.68
2023-05-22T23:50:46.298Z,17.75
2023-05-22T23:53:14.060Z,17.61
2023-05-22T23:55:42.086Z,17.99
2023-05-22T23:58:10.100Z,17.84
